createdAt,value
2023-06-15T00:01:35.024Z,66.00
2023-06-15T00:04:02.366Z,66.00
2023-06-15T00:06:29.648Z,65.60
2023-06-15T00:08:57.608Z,65.60
2023-06-15T00:11:24.740Z,65.90
2023-06-15T00:13:51.856Z,66.00
2023-06-15T00:16:19.713Z,66.50
2023-06-15T00:18:50.988Z,66.20
2023-06-15T00:21:18.332Z,66.90
2023-06-15T00:23:46.360Z,66.90
2023-06-15T00:26:13.472Z,67.00
2023-06-15T00:28:40.776Z,66.70
2023-06-15T00:31:07.890Z,66.60
2023-06-15T00:33:35.106Z,66.60
2023-06-15T00:36:02.445Z,66.10
2023-06-15T00:38:29.548Z,66.00
2023-06-15T00:40:56.729Z,65.90
2023-06-15T00:43:23.907Z,65.90
2023-06-15T00:45:51.228Z,65.70
2023-06-15T00:48:18.413Z,66.60
2023-06-15T00:50:45.628Z,67.10
2023-06-15T00:53:13.053Z,66.70
2023-06-15T00:55:42.746Z,66.60
2023-06-15T00:58:10.553Z,66.40
2023-06-15T01:00:38.465Z,66.20
2023-06-15T01:03:07.454Z,66.00
2023-06-15T01:05:36.108Z,65.90
2023-06-15T01:08:09.333Z,65.80
2023-06-15T01:10:37.099Z,65.60
2023-06-15T01:13:06.139Z,65.60
2023-06-15T01:15:34.038Z,65.40
2023-06-15T01:18:04.249Z,65.70
2023-06-15T01:20:40.597Z,65.40
2023-06-15T01:23:56.668Z,65.30
2023-06-15T01:26:29.906Z,65.20
2023-06-15T01:28:58.015Z,65.00
2023-06-15T01:31:25.490Z,65.20
2023-06-15T01:33:53.198Z,65.10
2023-06-15T01:36:20.801Z,65.10
2023-06-15T01:38:52.695Z,65.10
2023-06-15T01:41:22.043Z,65.30
2023-06-15T01:43:49.604Z,65.10
2023-06-15T01:46:17.546Z,65.00
2023-06-15T01:48:44.952Z,65.00
2023-06-15T01:51:13.248Z,64.90
2023-06-15T01:53:40.502Z,64.80
2023-06-15T01:56:07.737Z,64.90
2023-06-15T01:58:34.897Z,64.70
2023-06-15T02:01:02.205Z,65.40
2023-06-15T02:03:29.349Z,64.60
2023-06-15T02:05:56.433Z,64.60
2023-06-15T02:08:23.551Z,64.60
2023-06-15T02:10:50.820Z,64.60
2023-06-15T02:13:18.492Z,64.50
2023-06-15T02:15:45.688Z,64.50
2023-06-15T02:18:16.192Z,64.70
2023-06-15T02:20:45.826Z,64.90
2023-06-15T02:23:13.688Z,65.10
2023-06-15T02:25:40.948Z,65.10
2023-06-15T02:28:08.115Z,65.50
2023-06-15T02:30:35.377Z,65.70
2023-06-15T02:33:03.405Z,65.60
2023-06-15T02:35:30.781Z,65.30
2023-06-15T02:37:57.882Z,65.00
2023-06-15T02:40:25.048Z,65.10
2023-06-15T02:42:52.210Z,65.10
2023-06-15T02:45:19.779Z,65.00
2023-06-15T02:47:50.212Z,64.80
2023-06-15T02:50:18.882Z,64.80
2023-06-15T02:52:46.816Z,64.80
2023-06-15T02:55:14.616Z,64.90
2023-06-15T02:57:42.703Z,64.90
2023-06-15T03:00:13.629Z,64.90
2023-06-15T03:02:44.156Z,64.90
2023-06-15T03:05:11.864Z,64.90
2023-06-15T03:07:41.507Z,65.20
2023-06-15T03:10:08.955Z,64.90
2023-06-15T03:12:36.255Z,64.90
2023-06-15T03:15:03.757Z,65.10
2023-06-15T03:17:33.492Z,66.40
2023-06-15T03:20:01.440Z,66.20
2023-06-15T03:22:28.872Z,66.30
2023-06-15T03:24:56.781Z,66.70
2023-06-15T03:27:23.966Z,66.60
2023-06-15T03:29:52.654Z,66.40
2023-06-15T03:32:19.833Z,66.30
2023-06-15T03:34:47.718Z,66.40
2023-06-15T03:37:15.274Z,66.30
2023-06-15T03:39:42.475Z,66.10
2023-06-15T03:42:09.602Z,66.00
2023-06-15T03:44:36.708Z,65.80
2023-06-15T03:47:04.163Z,65.70
2023-06-15T03:49:31.310Z,66.50
2023-06-15T03:51:58.395Z,65.80
2023-06-15T03:54:25.509Z,65.80
2023-06-15T03:56:52.635Z,65.70
2023-06-15T03:59:19.734Z,65.80
2023-06-15T04:01:46.994Z,65.80
2023-06-15T04:04:16.194Z,65.80
2023-06-15T04:06:47.771Z,65.80
2023-06-15T04:09:18.155Z,66.60
2023-06-15T04:11:45.513Z,66.40
2023-06-15T04:14:13.294Z,66.10
2023-06-15T04:16:40.481Z,66.00
2023-06-15T04:19:10.919Z,66.00
2023-06-15T04:21:38.172Z,66.10
2023-06-15T04:24:06.900Z,66.10
2023-06-15T04:26:34.158Z,65.60
2023-06-15T04:29:01.287Z,66.00
2023-06-15T04:31:32.097Z,66.00
2023-06-15T04:34:00.420Z,65.90
2023-06-15T04:36:32.362Z,65.90
2023-06-15T04:39:00.767Z,66.00
2023-06-15T04:41:29.086Z,66.20
2023-06-15T04:43:56.845Z,66.10
2023-06-15T04:46:24.314Z,66.10
2023-06-15T04:48:51.473Z,66.10
2023-06-15T04:51:19.538Z,66.40
2023-06-15T04:53:47.050Z,66.20
2023-06-15T04:56:14.789Z,66.50
2023-06-15T04:58:42.227Z,67.30
2023-06-15T05:01:09.376Z,67.40
2023-06-15T05:03:36.584Z,67.30
2023-06-15T05:06:03.791Z,67.20
2023-06-15T05:08:30.914Z,67.20
2023-06-15T05:10:58.283Z,67.10
2023-06-15T05:13:26.071Z,67.10
2023-06-15T05:15:55.813Z,67.20
2023-06-15T05:18:27.652Z,67.30
2023-06-15T05:20:54.829Z,67.40
2023-06-15T05:23:21.973Z,67.40
2023-06-15T05:25:49.285Z,67.50
2023-06-15T05:28:17.400Z,67.60
2023-06-15T05:30:44.650Z,67.40
2023-06-15T05:33:12.012Z,67.90
2023-06-15T05:35:39.156Z,67.90
2023-06-15T05:38:06.330Z,67.80
2023-06-15T05:40:33.466Z,68.00
2023-06-15T05:43:00.608Z,68.00
2023-06-15T05:45:28.772Z,68.10
2023-06-15T05:47:56.048Z,68.20
2023-06-15T05:50:23.165Z,68.50
2023-06-15T05:52:50.523Z,68.40
2023-06-15T05:55:18.441Z,69.10
2023-06-15T05:57:45.690Z,69.40
2023-06-15T06:00:13.459Z,68.70
2023-06-15T06:02:42.239Z,70.10
2023-06-15T06:05:09.496Z,70.40
2023-06-15T06:07:36.670Z,70.00
2023-06-15T06:10:04.200Z,69.50
2023-06-15T06:12:31.365Z,67.20
2023-06-15T06:14:58.481Z,66.90
2023-06-15T06:17:48.692Z,67.00
2023-06-15T06:20:13.128Z,67.60
2023-06-15T06:22:40.434Z,68.30
2023-06-15T06:25:08.133Z,68.30
2023-06-15T06:27:36.060Z,68.90
2023-06-15T06:30:03.381Z,69.40
2023-06-15T06:32:30.574Z,69.60
2023-06-15T06:34:57.757Z,69.40
2023-06-15T06:37:25.931Z,69.10
2023-06-15T06:39:53.140Z,69.60
2023-06-15T06:42:20.264Z,69.50
2023-06-15T06:44:47.398Z,69.30
2023-06-15T06:47:14.615Z,69.40
2023-06-15T06:49:41.772Z,69.60
2023-06-15T06:52:09.019Z,69.60
2023-06-15T06:54:36.140Z,69.60
2023-06-15T06:57:04.394Z,69.60
2023-06-15T06:59:43.304Z,69.50
2023-06-15T07:02:12.031Z,69.30
2023-06-15T07:04:39.229Z,69.40
2023-06-15T07:07:06.589Z,69.30
2023-06-15T07:09:33.778Z,69.30
2023-06-15T07:12:01.562Z,69.20
2023-06-15T07:14:28.742Z,69.30
2023-06-15T07:16:56.068Z,69.20
2023-06-15T07:19:23.232Z,69.10
2023-06-15T07:21:50.505Z,68.90
2023-06-15T07:24:17.849Z,69.00
2023-06-15T07:26:45.099Z,69.10
2023-06-15T07:29:12.191Z,69.10
2023-06-15T07:31:39.834Z,69.10
2023-06-15T07:34:07.035Z,68.90
2023-06-15T07:36:34.156Z,68.70
2023-06-15T07:39:01.406Z,68.70
2023-06-15T07:41:28.521Z,68.70
2023-06-15T07:43:55.841Z,68.00
2023-06-15T07:46:23.043Z,68.40
2023-06-15T07:48:50.148Z,67.70
2023-06-15T07:51:32.058Z,67.10
2023-06-15T07:54:04.402Z,67.20
2023-06-15T07:56:31.545Z,68.50
2023-06-15T07:58:58.678Z,68.10
2023-06-15T08:01:26.099Z,67.60
2023-06-15T08:03:53.243Z,68.30
2023-06-15T08:06:20.554Z,68.20
2023-06-15T08:08:47.723Z,68.50
2023-06-15T08:11:17.738Z,68.40
2023-06-15T08:13:44.996Z,68.40
2023-06-15T08:16:12.121Z,69.70
2023-06-15T08:18:39.247Z,69.10
2023-06-15T08:21:06.486Z,68.70
2023-06-15T08:23:33.595Z,67.90
2023-06-15T08:26:00.827Z,67.70
2023-06-15T08:28:27.941Z,67.90
2023-06-15T08:30:55.117Z,69.20
2023-06-15T08:33:22.304Z,69.50
2023-06-15T08:35:49.432Z,70.70
2023-06-15T08:38:16.555Z,71.70
2023-06-15T08:40:43.699Z,72.30
2023-06-15T08:43:11.753Z,72.60
2023-06-15T08:45:43.366Z,73.10
2023-06-15T08:48:16.721Z,73.60
2023-06-15T08:50:46.526Z,73.80
2023-06-15T08:53:15.365Z,74.20
2023-06-15T08:55:43.086Z,73.90
2023-06-15T08:58:11.204Z,74.30
2023-06-15T09:00:38.370Z,75.00
2023-06-15T09:03:09.005Z,74.80
2023-06-15T09:05:36.512Z,75.10
2023-06-15T09:08:04.903Z,75.10
2023-06-15T09:10:38.099Z,75.10
2023-06-15T09:13:05.831Z,75.10
2023-06-15T09:15:33.362Z,74.90
2023-06-15T09:18:02.626Z,74.70
2023-06-15T09:20:32.049Z,75.00
2023-06-15T09:23:05.068Z,75.00
2023-06-15T09:25:33.616Z,74.90
2023-06-15T09:28:02.474Z,74.80
2023-06-15T09:30:33.789Z,74.90
2023-06-15T09:33:18.295Z,75.00
2023-06-15T09:36:04.944Z,74.90
2023-06-15T09:38:42.649Z,75.00
2023-06-15T09:41:10.333Z,75.10
2023-06-15T09:43:40.635Z,75.00
2023-06-15T09:46:17.019Z,75.60
2023-06-15T09:48:45.768Z,75.00
2023-06-15T09:51:12.909Z,75.20
2023-06-15T09:53:43.476Z,75.40
2023-06-15T09:56:28.770Z,75.20
2023-06-15T09:59:00.169Z,75.40
2023-06-15T10:01:29.399Z,75.40
2023-06-15T10:03:58.789Z,75.90
2023-06-15T10:06:27.642Z,75.20
2023-06-15T10:08:59.367Z,75.00
2023-06-15T10:11:28.905Z,74.90
2023-06-15T10:14:01.656Z,74.60
2023-06-15T10:16:29.612Z,75.00
2023-06-15T10:19:06.262Z,74.40
2023-06-15T10:21:39.508Z,74.40
2023-06-15T10:24:13.781Z,74.20
2023-06-15T10:26:41.584Z,74.80
2023-06-15T10:29:17.879Z,75.60
2023-06-15T10:31:55.236Z,75.60
2023-06-15T10:34:31.679Z,75.80
2023-06-15T10:37:08.600Z,75.90
2023-06-15T10:39:40.855Z,76.70
2023-06-15T10:42:09.181Z,76.10
2023-06-15T10:44:36.729Z,76.80
2023-06-15T10:47:07.815Z,76.80
2023-06-15T10:49:35.612Z,76.40
2023-06-15T10:52:05.363Z,76.20
2023-06-15T10:54:32.692Z,76.30
2023-06-15T10:56:59.885Z,76.10
2023-06-15T10:59:42.304Z,75.80
2023-06-15T11:02:27.989Z,75.40
2023-06-15T11:05:17.177Z,75.20
2023-06-15T11:07:48.153Z,75.10
2023-06-15T11:10:23.972Z,75.00
2023-06-15T11:13:03.594Z,74.70
2023-06-15T11:15:35.975Z,74.60
2023-06-15T11:18:05.220Z,74.40
2023-06-15T11:20:55.732Z,74.30
2023-06-15T11:23:25.445Z,74.20
2023-06-15T11:25:56.834Z,74.20
2023-06-15T11:28:37.886Z,74.40
2023-06-15T11:31:08.063Z,74.60
2023-06-15T11:33:37.672Z,74.50
2023-06-15T11:36:09.543Z,74.50
2023-06-15T11:38:37.483Z,74.40
2023-06-15T11:41:10.159Z,74.30
2023-06-15T11:43:50.519Z,75.10
2023-06-15T11:46:21.697Z,74.30
2023-06-15T11:48:57.664Z,74.30
2023-06-15T11:51:26.321Z,74.30
2023-06-15T11:53:54.726Z,74.10
2023-06-15T11:56:23.008Z,74.10
2023-06-15T11:58:50.830Z,74.10
2023-06-15T12:01:18.285Z,73.80
2023-06-15T12:04:02.182Z,73.90
2023-06-15T12:06:30.279Z,73.70
2023-06-15T12:08:57.643Z,74.00
2023-06-15T12:11:27.268Z,74.00
2023-06-15T12:14:09.907Z,74.10
2023-06-15T12:16:38.902Z,74.10
2023-06-15T12:19:09.860Z,74.10
2023-06-15T12:21:38.711Z,74.10
2023-06-15T12:24:16.442Z,74.40
2023-06-15T12:26:52.474Z,74.80
2023-06-15T12:29:21.371Z,74.60
2023-06-15T12:31:50.174Z,74.40
2023-06-15T12:34:22.465Z,74.50
2023-06-15T12:36:50.529Z,74.50
2023-06-15T12:39:19.266Z,74.40
2023-06-15T12:41:46.505Z,74.50
2023-06-15T12:44:13.660Z,74.50
2023-06-15T12:46:41.616Z,74.50
2023-06-15T12:49:11.316Z,74.40
2023-06-15T12:51:38.739Z,74.70
2023-06-15T12:54:06.573Z,74.60
2023-06-15T12:56:37.879Z,74.60
2023-06-15T12:59:05.096Z,74.60
2023-06-15T13:01:35.392Z,74.60
2023-06-15T13:04:03.670Z,74.50
2023-06-15T13:06:31.047Z,74.40
2023-06-15T13:08:58.197Z,74.30
2023-06-15T13:11:27.730Z,74.10
2023-06-15T13:13:54.853Z,74.20
2023-06-15T13:16:22.038Z,74.10
2023-06-15T13:18:49.280Z,74.00
2023-06-15T13:21:19.652Z,74.00
2023-06-15T13:23:47.946Z,73.60
2023-06-15T13:26:15.306Z,73.90
2023-06-15T13:28:43.016Z,73.50
2023-06-15T13:31:10.625Z,74.00
2023-06-15T13:33:37.773Z,74.10
2023-06-15T13:36:05.086Z,74.10
2023-06-15T13:38:32.183Z,73.60
2023-06-15T13:40:59.443Z,73.60
2023-06-15T13:43:26.736Z,72.90
2023-06-15T13:45:53.875Z,71.40
2023-06-15T13:48:20.999Z,71.20
2023-06-15T13:50:48.178Z,69.90
2023-06-15T13:53:15.384Z,70.00
2023-06-15T13:55:43.635Z,71.30
2023-06-15T13:58:10.815Z,70.60
2023-06-15T14:00:39.324Z,70.80
2023-06-15T14:03:07.608Z,71.00
2023-06-15T14:05:35.130Z,71.30
2023-06-15T14:08:02.380Z,70.60
2023-06-15T14:10:29.595Z,70.60
2023-06-15T14:12:57.552Z,71.80
2023-06-15T14:15:24.995Z,71.90
2023-06-15T14:17:52.370Z,71.60
2023-06-15T14:20:20.140Z,71.80
2023-06-15T14:22:47.453Z,71.50
2023-06-15T14:25:15.817Z,71.20
2023-06-15T14:27:48.476Z,71.20
2023-06-15T14:30:18.476Z,71.80
2023-06-15T14:32:46.425Z,71.80
2023-06-15T14:35:13.607Z,72.20
2023-06-15T14:37:40.848Z,71.80
2023-06-15T14:40:08.344Z,71.60
2023-06-15T14:42:48.115Z,71.90
2023-06-15T14:45:16.418Z,72.20
2023-06-15T14:47:44.289Z,72.20
2023-06-15T14:50:11.475Z,72.00
2023-06-15T14:52:38.837Z,70.00
2023-06-15T14:55:06.404Z,70.30
2023-06-15T14:57:33.557Z,70.90
2023-06-15T15:00:01.055Z,70.80
2023-06-15T15:02:28.335Z,71.50
2023-06-15T15:04:57.752Z,72.00
2023-06-15T15:07:24.840Z,72.40
2023-06-15T15:09:52.009Z,72.50
2023-06-15T15:12:19.113Z,72.70
2023-06-15T15:14:46.275Z,72.80
2023-06-15T15:17:14.257Z,72.80
2023-06-15T15:19:41.501Z,72.70
2023-06-15T15:22:08.601Z,72.40
2023-06-15T15:24:35.973Z,72.60
2023-06-15T15:27:03.295Z,72.50
2023-06-15T15:29:30.460Z,72.80
2023-06-15T15:31:57.612Z,72.80
2023-06-15T15:34:24.939Z,72.80
2023-06-15T15:36:52.147Z,72.70
2023-06-15T15:39:19.315Z,72.40
2023-06-15T15:41:46.688Z,72.70
2023-06-15T15:44:13.788Z,72.60
2023-06-15T15:46:41.047Z,72.40
2023-06-15T15:49:08.346Z,72.50
2023-06-15T15:51:36.502Z,72.60
2023-06-15T15:54:03.778Z,69.30
2023-06-15T15:56:31.063Z,70.20
2023-06-15T15:58:58.177Z,70.80
2023-06-15T16:01:28.378Z,69.80
2023-06-15T16:03:55.775Z,70.30
2023-06-15T16:06:22.997Z,70.30
2023-06-15T16:08:50.469Z,71.00
2023-06-15T16:11:17.676Z,71.30
2023-06-15T16:13:46.160Z,71.20
2023-06-15T16:18:43.263Z,71.10
2023-06-15T16:21:10.579Z,70.50
2023-06-15T16:23:37.724Z,71.30
2023-06-15T16:26:04.871Z,70.00
2023-06-15T16:28:33.689Z,68.80
2023-06-15T16:31:01.311Z,70.50
2023-06-15T16:33:28.407Z,70.00
2023-06-15T16:35:55.703Z,70.40
2023-06-15T16:38:22.891Z,67.60
2023-06-15T16:40:50.084Z,66.70
2023-06-15T16:43:17.192Z,64.80
2023-06-15T16:45:44.401Z,69.60
2023-06-15T16:48:11.888Z,68.10
2023-06-15T16:50:39.145Z,68.10
2023-06-15T16:53:06.319Z,67.70
2023-06-15T16:55:33.504Z,67.30
2023-06-15T16:58:01.732Z,67.80
2023-06-15T17:00:29.495Z,67.90
2023-06-15T17:02:57.047Z,66.90
2023-06-15T17:05:24.299Z,66.30
2023-06-15T17:07:51.454Z,66.70
2023-06-15T17:10:19.163Z,63.10
2023-06-15T17:12:46.594Z,61.50
2023-06-15T17:15:13.760Z,65.00
2023-06-15T17:17:41.373Z,67.00
2023-06-15T17:20:09.070Z,68.70
2023-06-15T17:22:37.485Z,69.10
2023-06-15T17:25:05.021Z,68.20
2023-06-15T17:27:32.171Z,68.30
2023-06-15T17:29:59.272Z,69.10
2023-06-15T17:32:26.826Z,67.40
2023-06-15T17:34:54.045Z,68.90
2023-06-15T17:37:21.920Z,70.50
2023-06-15T17:39:49.120Z,70.50
2023-06-15T17:42:16.330Z,70.90
2023-06-15T17:44:43.552Z,69.80
2023-06-15T17:47:10.662Z,71.20
2023-06-15T17:49:37.798Z,70.60
2023-06-15T17:52:07.688Z,71.10
2023-06-15T17:54:34.825Z,70.00
2023-06-15T17:57:02.165Z,70.50
2023-06-15T17:59:29.366Z,70.10
2023-06-15T18:01:56.474Z,69.40
2023-06-15T18:04:23.658Z,68.70
2023-06-15T18:06:50.807Z,69.30
2023-06-15T18:09:17.960Z,67.40
2023-06-15T18:11:45.117Z,69.10
2023-06-15T18:14:12.215Z,69.20
2023-06-15T18:16:39.598Z,70.00
2023-06-15T18:19:06.954Z,68.40
2023-06-15T18:21:34.071Z,67.60
2023-06-15T18:24:01.215Z,68.80
2023-06-15T18:26:28.403Z,67.60
2023-06-15T18:28:56.208Z,67.50
2023-06-15T18:31:23.474Z,68.30
2023-06-15T18:33:50.646Z,68.10
2023-06-15T18:36:18.623Z,68.60
2023-06-15T18:38:46.001Z,69.10
2023-06-15T18:41:13.116Z,69.10
2023-06-15T18:43:41.192Z,69.40
2023-06-15T18:46:08.471Z,69.70
2023-06-15T18:48:36.062Z,70.20
2023-06-15T18:51:03.732Z,71.00
2023-06-15T18:53:30.847Z,70.90
2023-06-15T18:55:58.962Z,70.70
2023-06-15T18:58:26.335Z,70.70
2023-06-15T19:00:53.450Z,69.10
2023-06-15T19:03:20.854Z,69.00
2023-06-15T19:05:51.047Z,69.70
2023-06-15T19:08:19.680Z,70.40
2023-06-15T19:10:46.781Z,70.60
2023-06-15T19:13:13.908Z,70.60
2023-06-15T19:15:41.177Z,70.80
2023-06-15T19:18:08.426Z,70.90
2023-06-15T19:20:35.681Z,70.40
2023-06-15T19:23:02.945Z,70.30
2023-06-15T19:25:30.103Z,69.00
2023-06-15T19:27:57.207Z,69.50
2023-06-15T19:30:25.341Z,67.50
2023-06-15T19:32:52.487Z,68.20
2023-06-15T19:35:20.273Z,67.80
2023-06-15T19:37:47.429Z,68.20
2023-06-15T19:40:15.125Z,68.20
2023-06-15T19:42:42.635Z,67.70
2023-06-15T19:45:10.326Z,66.00
2023-06-15T19:47:39.987Z,66.10
2023-06-15T19:50:08.154Z,66.60
2023-06-15T19:52:35.303Z,66.00
2023-06-15T19:55:02.819Z,65.90
2023-06-15T19:57:29.981Z,67.20
2023-06-15T19:59:57.567Z,67.10
2023-06-15T20:02:24.801Z,66.90
2023-06-15T20:04:52.007Z,67.40
2023-06-15T20:07:19.154Z,66.10
2023-06-15T20:09:46.354Z,67.70
2023-06-15T20:12:13.547Z,67.20
2023-06-15T20:14:40.671Z,67.10
2023-06-15T20:17:07.853Z,66.90
2023-06-15T20:19:34.968Z,66.60
2023-06-15T20:22:03.559Z,66.10
2023-06-15T20:24:30.864Z,65.30
2023-06-15T20:26:58.053Z,65.10
2023-06-15T20:29:25.421Z,66.00
2023-06-15T20:31:52.527Z,64.70
2023-06-15T20:34:19.728Z,65.40
2023-06-15T20:36:47.129Z,66.00
2023-06-15T20:39:15.921Z,65.30
2023-06-15T20:41:43.014Z,65.00
2023-06-15T20:44:10.190Z,66.10
2023-06-15T20:46:37.370Z,66.20
2023-06-15T20:49:04.601Z,65.50
2023-06-15T20:51:31.785Z,64.70
2023-06-15T20:53:58.917Z,65.00
2023-06-15T20:56:26.068Z,65.60
2023-06-15T20:58:54.442Z,64.70
2023-06-15T21:01:22.311Z,63.10
2023-06-15T21:03:49.574Z,63.10
2023-06-15T21:06:16.814Z,64.10
2023-06-15T21:08:44.114Z,64.40
2023-06-15T21:11:11.367Z,64.10
2023-06-15T21:13:38.462Z,64.80
2023-06-15T21:16:06.700Z,64.40
2023-06-15T21:18:35.741Z,64.30
2023-06-15T21:21:04.525Z,64.40
2023-06-15T21:23:33.614Z,64.60
2023-06-15T21:26:03.869Z,64.30
2023-06-15T21:28:31.037Z,64.70
2023-06-15T21:30:58.315Z,64.50
2023-06-15T21:33:25.655Z,65.30
2023-06-15T21:35:52.876Z,65.00
2023-06-15T21:38:21.899Z,64.50
2023-06-15T21:40:49.264Z,65.40
2023-06-15T21:43:16.394Z,64.30
2023-06-15T21:45:43.783Z,65.00
2023-06-15T21:48:11.089Z,64.80
2023-06-15T21:50:38.247Z,64.50
2023-06-15T21:53:05.503Z,64.70
2023-06-15T21:55:32.726Z,64.30
2023-06-15T21:57:59.833Z,64.40
2023-06-15T22:00:27.975Z,64.80
2023-06-15T22:02:55.462Z,63.90
2023-06-15T22:05:22.760Z,64.50
2023-06-15T22:07:51.395Z,63.80
2023-06-15T22:10:18.910Z,63.80
2023-06-15T22:12:46.556Z,64.30
2023-06-15T22:15:14.455Z,64.90
2023-06-15T22:17:44.183Z,64.40
2023-06-15T22:20:12.452Z,64.30
2023-06-15T22:22:40.167Z,63.80
2023-06-15T22:25:07.627Z,63.80
2023-06-15T22:27:35.415Z,64.00
2023-06-15T22:30:03.174Z,63.90
2023-06-15T22:32:30.450Z,64.20
2023-06-15T22:34:57.612Z,64.20
2023-06-15T22:37:24.868Z,65.00
2023-06-15T22:39:52.048Z,65.00
2023-06-15T22:42:19.222Z,65.00
2023-06-15T22:44:47.823Z,65.30
2023-06-15T22:47:18.764Z,65.40
2023-06-15T22:49:46.026Z,65.00
2023-06-15T22:52:13.960Z,64.20
2023-06-15T22:54:43.926Z,65.40
2023-06-15T22:57:11.747Z,64.90
2023-06-15T22:59:39.728Z,66.00
2023-06-15T23:02:06.911Z,66.00
2023-06-15T23:04:34.264Z,66.40
2023-06-15T23:07:04.353Z,66.30
2023-06-15T23:09:37.479Z,67.10
2023-06-15T23:12:10.190Z,66.10
2023-06-15T23:14:39.798Z,66.50
2023-06-15T23:17:07.802Z,66.50
2023-06-15T23:19:35.003Z,66.60
2023-06-15T23:22:05.900Z,67.00
2023-06-15T23:24:33.222Z,67.00
2023-06-15T23:27:00.472Z,67.50
2023-06-15T23:29:28.484Z,67.00
2023-06-15T23:31:55.740Z,67.40
2023-06-15T23:34:22.855Z,67.60
2023-06-15T23:36:50.079Z,67.80
2023-06-15T23:39:17.203Z,67.70
2023-06-15T23:41:44.376Z,67.60
2023-06-15T23:44:11.515Z,68.20
2023-06-15T23:46:38.696Z,68.10
2023-06-15T23:49:05.894Z,67.70
2023-06-15T23:51:33.021Z,67.50
2023-06-15T23:54:00.158Z,67.60
2023-06-15T23:56:27.333Z,67.80
2023-06-15T23:58:54.524Z,68.10
